sensor_id;sensor_type;location;lat;lon;timestamp;pressure;altitude;pressure_sealevel;temperature;humidity
59789;BME280;47353;51.614;5.530;2023-07-20T00:00:00;101289.66;;;16.85;100.00
59789;BME280;47353;51.614;5.530;2023-07-20T00:02:26;101281.28;;;16.85;100.00
59789;BME280;47353;51.614;5.530;2023-07-20T00:04:51;101284.59;;;16.87;100.00
59789;BME280;47353;51.614;5.530;2023-07-20T00:07:17;101287.41;;;16.87;100.00
59789;BME280;47353;51.614;5.530;2023-07-20T00:09:42;101290.28;;;16.82;100.00
59789;BME280;47353;51.614;5.530;2023-07-20T00:12:08;101288.94;;;16.79;100.00
59789;BME280;47353;51.614;5.530;2023-07-20T00:14:33;101288.94;;;16.79;100.00
59789;BME280;47353;51.614;5.530;2023-07-20T00:16:58;101280.25;;;16.81;100.00
59789;BME280;47353;51.614;5.530;2023-07-20T00:19:27;101288.09;;;16.79;100.00
59789;BME280;47353;51.614;5.530;2023-07-20T00:21:54;101284.66;;;16.68;100.00
59789;BME280;47353;51.614;5.530;2023-07-20T00:24:20;101289.22;;;16.64;100.00
59789;BME280;47353;51.614;5.530;2023-07-20T00:26:46;101283.09;;;16.62;100.00
59789;BME280;47353;51.614;5.530;2023-07-20T00:29:11;101280.91;;;16.59;100.00
59789;BME280;47353;51.614;5.530;2023-07-20T00:31:37;101285.34;;;16.60;100.00
59789;BME280;47353;51.614;5.530;2023-07-20T00:34:05;101284.75;;;16.63;100.00
59789;BME280;47353;51.614;5.530;2023-07-20T00:36:31;101291.72;;;16.66;100.00
59789;BME280;47353;51.614;5.530;2023-07-20T00:38:57;101280.91;;;16.59;100.00
59789;BME280;47353;51.614;5.530;2023-07-20T00:41:22;101282.13;;;16.53;100.00
59789;BME280;47353;51.614;5.530;2023-07-20T00:43:48;101282.56;;;16.41;100.00
59789;BME280;47353;51.614;5.530;2023-07-20T00:46:13;101283.78;;;16.35;100.00
59789;BME280;47353;51.614;5.530;2023-07-20T00:48:40;101280.78;;;16.32;100.00
59789;BME280;47353;51.614;5.530;2023-07-20T00:51:06;101285.53;;;16.31;100.00
59789;BME280;47353;51.614;5.530;2023-07-20T00:53:32;101293.09;;;16.31;100.00
59789;BME280;47353;51.614;5.530;2023-07-20T00:55:57;101285.63;;;16.26;100.00
59789;BME280;47353;51.614;5.530;2023-07-20T00:58:23;101288.78;;;16.20;100.00
59789;BME280;47353;51.614;5.530;2023-07-20T01:00:49;101292.94;;;16.22;100.00
59789;BME280;47353;51.614;5.530;2023-07-20T01:03:14;101293.34;;;16.16;100.00
59789;BME280;47353;51.614;5.530;2023-07-20T01:08:43;101299.97;;;16.01;100.00
59789;BME280;47353;51.614;5.530;2023-07-20T01:14:16;101295.47;;;15.87;100.00
59789;BME280;47353;51.614;5.530;2023-07-20T01:16:42;101300.25;;;15.81;100.00
59789;BME280;47353;51.614;5.530;2023-07-20T01:19:07;101296.19;;;15.74;100.00
59789;BME280;47353;51.614;5.530;2023-07-20T01:21:55;101299.56;;;15.71;100.00
59789;BME280;47353;51.614;5.530;2023-07-20T01:27:57;101294.06;;;15.66;100.00
59789;BME280;47353;51.614;5.530;2023-07-20T01:32:47;101294.22;;;15.74;100.00
59789;BME280;47353;51.614;5.530;2023-07-20T01:35:14;101296.38;;;15.82;100.00
59789;BME280;47353;51.614;5.530;2023-07-20T01:37:43;101301.09;;;15.82;100.00
59789;BME280;47353;51.614;5.530;2023-07-20T01:40:10;101299.34;;;15.86;100.00
59789;BME280;47353;51.614;5.530;2023-07-20T01:42:37;101299.06;;;15.87;100.00
59789;BME280;47353;51.614;5.530;2023-07-20T01:45:02;101305.84;;;15.81;100.00
59789;BME280;47353;51.614;5.530;2023-07-20T01:47:28;101297.63;;;15.71;100.00
59789;BME280;47353;51.614;5.530;2023-07-20T01:49:53;101301.38;;;15.62;100.00
59789;BME280;47353;51.614;5.530;2023-07-20T01:52:18;101300.91;;;15.55;100.00
59789;BME280;47353;51.614;5.530;2023-07-20T01:54:44;101301.50;;;15.52;100.00
59789;BME280;47353;51.614;5.530;2023-07-20T01:57:09;101305.28;;;15.42;100.00
59789;BME280;47353;51.614;5.530;2023-07-20T01:59:35;101311.72;;;15.38;100.00
59789;BME280;47353;51.614;5.530;2023-07-20T02:02:00;101301.97;;;15.35;100.00
59789;BME280;47353;51.614;5.530;2023-07-20T02:04:25;101311.16;;;15.36;100.00
59789;BME280;47353;51.614;5.530;2023-07-20T02:06:51;101307.53;;;15.40;100.00
59789;BME280;47353;51.614;5.530;2023-07-20T02:09:16;101312.50;;;15.43;100.00
59789;BME280;47353;51.614;5.530;2023-07-20T02:11:41;101304.72;;;15.40;100.00
59789;BME280;47353;51.614;5.530;2023-07-20T02:14:07;101309.47;;;15.40;100.00
59789;BME280;47353;51.614;5.530;2023-07-20T02:16:32;101306.41;;;15.36;100.00
59789;BME280;47353;51.614;5.530;2023-07-20T02:18:58;101314.75;;;15.36;100.00
59789;BME280;47353;51.614;5.530;2023-07-20T02:21:23;101322.03;;;15.37;100.00
59789;BME280;47353;51.614;5.530;2023-07-20T02:23:49;101314.75;;;15.36;100.00
59789;BME280;47353;51.614;5.530;2023-07-20T02:26:14;101306.69;;;15.35;100.00
59789;BME280;47353;51.614;5.530;2023-07-20T02:28:40;101313.13;;;15.35;100.00
59789;BME280;47353;51.614;5.530;2023-07-20T02:31:06;101317.03;;;15.34;100.00
59789;BME280;47353;51.614;5.530;2023-07-20T02:33:32;101324.56;;;15.34;100.00
59789;BME280;47353;51.614;5.530;2023-07-20T02:35:57;101322.91;;;15.33;100.00
59789;BME280;47353;51.614;5.530;2023-07-20T02:38:22;101329.28;;;15.38;100.00
59789;BME280;47353;51.614;5.530;2023-07-20T02:40:48;101325.38;;;15.39;100.00
59789;BME280;47353;51.614;5.530;2023-07-20T02:43:13;101324.78;;;15.42;100.00
59789;BME280;47353;51.614;5.530;2023-07-20T02:45:42;101323.41;;;15.40;100.00
59789;BME280;47353;51.614;5.530;2023-07-20T02:48:10;101327.03;;;15.40;100.00
59789;BME280;47353;51.614;5.530;2023-07-20T02:50:35;101334.88;;;15.38;100.00
59789;BME280;47353;51.614;5.530;2023-07-20T02:53:02;101339.03;;;15.41;100.00
59789;BME280;47353;51.614;5.530;2023-07-20T02:55:27;101339.84;;;15.41;100.00
59789;BME280;47353;51.614;5.530;2023-07-20T02:57:52;101343.44;;;15.47;100.00
59789;BME280;47353;51.614;5.530;2023-07-20T03:00:18;101347.31;;;15.46;100.00
59789;BME280;47353;51.614;5.530;2023-07-20T03:02:45;101351.22;;;15.50;100.00
59789;BME280;47353;51.614;5.530;2023-07-20T03:05:13;101356.25;;;15.48;100.00
59789;BME280;47353;51.614;5.530;2023-07-20T03:07:38;101355.19;;;15.44;100.00
59789;BME280;47353;51.614;5.530;2023-07-20T03:10:05;101359.38;;;15.41;100.00
59789;BME280;47353;51.614;5.530;2023-07-20T03:12:32;101360.25;;;15.37;100.00
59789;BME280;47353;51.614;5.530;2023-07-20T03:14:59;101362.19;;;15.36;100.00
59789;BME280;47353;51.614;5.530;2023-07-20T03:17:24;101365.56;;;15.33;100.00
59789;BME280;47353;51.614;5.530;2023-07-20T03:19:50;101366.47;;;15.29;100.00
59789;BME280;47353;51.614;5.530;2023-07-20T03:22:15;101367.34;;;15.24;100.00
59789;BME280;47353;51.614;5.530;2023-07-20T03:24:41;101371.81;;;15.25;100.00
59789;BME280;47353;51.614;5.530;2023-07-20T03:27:06;101367.34;;;15.24;100.00
59789;BME280;47353;51.614;5.530;2023-07-20T03:29:32;101368.28;;;15.15;100.00
59789;BME280;47353;51.614;5.530;2023-07-20T03:31:58;101369.47;;;15.08;100.00
59789;BME280;47353;51.614;5.530;2023-07-20T03:34:24;101368.16;;;15.01;100.00
59789;BME280;47353;51.614;5.530;2023-07-20T03:36:50;101369.06;;;14.91;100.00
59789;BME280;47353;51.614;5.530;2023-07-20T03:39:16;101373.88;;;14.86;100.00
59789;BME280;47353;51.614;5.530;2023-07-20T03:41:41;101378.13;;;14.78;100.00
59789;BME280;47353;51.614;5.530;2023-07-20T03:44:08;101378.19;;;14.68;100.00
59789;BME280;47353;51.614;5.530;2023-07-20T03:46:33;101372.97;;;14.62;100.00
59789;BME280;47353;51.614;5.530;2023-07-20T03:48:59;101376.38;;;14.54;100.00
59789;BME280;47353;51.614;5.530;2023-07-20T03:51:25;101385.31;;;14.51;100.00
59789;BME280;47353;51.614;5.530;2023-07-20T03:53:51;101377.28;;;14.44;100.00
59789;BME280;47353;51.614;5.530;2023-07-20T03:56:16;101384.00;;;14.38;100.00
59789;BME280;47353;51.614;5.530;2023-07-20T03:58:41;101390.16;;;14.35;100.00
59789;BME280;47353;51.614;5.530;2023-07-20T04:01:07;101390.19;;;14.30;100.00
59789;BME280;47353;51.614;5.530;2023-07-20T04:03:33;101386.84;;;14.28;100.00
59789;BME280;47353;51.614;5.530;2023-07-20T04:05:58;101394.66;;;14.26;100.00
59789;BME280;47353;51.614;5.530;2023-07-20T04:08:24;101390.50;;;14.24;100.00
59789;BME280;47353;51.614;5.530;2023-07-20T04:10:50;101391.59;;;14.28;100.00
59789;BME280;47353;51.614;5.530;2023-07-20T04:13:15;101394.31;;;14.33;100.00
59789;BME280;47353;51.614;5.530;2023-07-20T04:15:42;101391.81;;;14.36;100.00
59789;BME280;47353;51.614;5.530;2023-07-20T04:18:07;101392.94;;;14.35;100.00
59789;BME280;47353;51.614;5.530;2023-07-20T04:20:33;101389.34;;;14.30;100.00
59789;BME280;47353;51.614;5.530;2023-07-20T04:22:58;101389.63;;;14.28;100.00
59789;BME280;47353;51.614;5.530;2023-07-20T04:25:24;101389.63;;;14.28;100.00
59789;BME280;47353;51.614;5.530;2023-07-20T04:27:49;101393.53;;;14.27;100.00
59789;BME280;47353;51.614;5.530;2023-07-20T04:30:17;101390.47;;;14.29;100.00
59789;BME280;47353;51.614;5.530;2023-07-20T04:32:45;101385.47;;;14.26;100.00
59789;BME280;47353;51.614;5.530;2023-07-20T04:36:01;101396.88;;;14.29;100.00
59789;BME280;47353;51.614;5.530;2023-07-20T04:38:02;101396.03;;;14.29;100.00
59789;BME280;47353;51.614;5.530;2023-07-20T04:40:27;101390.75;;;14.27;100.00
59789;BME280;47353;51.614;5.530;2023-07-20T04:42:53;101391.31;;;14.29;100.00
59789;BME280;47353;51.614;5.530;2023-07-20T04:45:19;101398.81;;;14.29;100.00
59789;BME280;47353;51.614;5.530;2023-07-20T04:47:45;101393.53;;;14.32;100.00
59789;BME280;47353;51.614;5.530;2023-07-20T04:50:10;101394.03;;;14.34;100.00
59789;BME280;47353;51.614;5.530;2023-07-20T04:52:35;101392.06;;;14.40;100.00
59789;BME280;47353;51.614;5.530;2023-07-20T04:55:01;101396.47;;;14.46;100.00
59789;BME280;47353;51.614;5.530;2023-07-20T04:57:26;101393.97;;;14.49;100.00
59789;BME280;47353;51.614;5.530;2023-07-20T04:59:52;101395.25;;;14.62;100.00
59789;BME280;47353;51.614;5.530;2023-07-20T05:02:17;101398.63;;;14.59;100.00
59789;BME280;47353;51.614;5.530;2023-07-20T05:04:43;101393.88;;;14.59;100.00
59789;BME280;47353;51.614;5.530;2023-07-20T05:07:08;101398.88;;;14.57;100.00
59789;BME280;47353;51.614;5.530;2023-07-20T05:09:33;101389.16;;;14.55;100.00
59789;BME280;47353;51.614;5.530;2023-07-20T05:11:59;101398.38;;;14.55;100.00
59789;BME280;47353;51.614;5.530;2023-07-20T05:14:24;101396.09;;;14.57;100.00
59789;BME280;47353;51.614;5.530;2023-07-20T05:16:50;101397.78;;;14.58;100.00
59789;BME280;47353;51.614;5.530;2023-07-20T05:19:15;101407.50;;;14.61;100.00
59789;BME280;47353;51.614;5.530;2023-07-20T05:21:40;101403.34;;;14.63;100.00
59789;BME280;47353;51.614;5.530;2023-07-20T05:24:06;101401.63;;;14.67;100.00
59789;BME280;47353;51.614;5.530;2023-07-20T05:26:32;101396.31;;;14.71;100.00
59789;BME280;47353;51.614;5.530;2023-07-20T05:28:58;101404.88;;;14.74;100.00
59789;BME280;47353;51.614;5.530;2023-07-20T05:31:24;101394.28;;;14.76;100.00
59789;BME280;47353;51.614;5.530;2023-07-20T05:33:49;101397.88;;;14.82;100.00
59789;BME280;47353;51.614;5.530;2023-07-20T05:36:15;101400.59;;;14.87;100.00
59789;BME280;47353;51.614;5.530;2023-07-20T05:38:40;101405.31;;;14.91;100.00
59789;BME280;47353;51.614;5.530;2023-07-20T05:41:06;101423.09;;;15.00;100.00
59789;BME280;47353;51.614;5.530;2023-07-20T05:43:35;101420.50;;;15.09;100.00
59789;BME280;47353;51.614;5.530;2023-07-20T05:46:01;101420.38;;;15.19;100.00
59789;BME280;47353;51.614;5.530;2023-07-20T05:48:26;101425.88;;;15.29;100.00
59789;BME280;47353;51.614;5.530;2023-07-20T05:50:51;101420.97;;;15.50;100.00
59789;BME280;47353;51.614;5.530;2023-07-20T05:53:17;101428.59;;;15.63;100.00
59789;BME280;47353;51.614;5.530;2023-07-20T05:55:42;101433.56;;;15.94;100.00
59789;BME280;47353;51.614;5.530;2023-07-20T05:58:07;101440.19;;;15.98;100.00
59789;BME280;47353;51.614;5.530;2023-07-20T06:00:33;101445.66;;;16.08;100.00
59789;BME280;47353;51.614;5.530;2023-07-20T06:02:58;101436.28;;;16.18;100.00
59789;BME280;47353;51.614;5.530;2023-07-20T06:05:24;101442.34;;;16.25;100.00
59789;BME280;47353;51.614;5.530;2023-07-20T06:07:50;101444.94;;;16.40;100.00
59789;BME280;47353;51.614;5.530;2023-07-20T06:10:15;101444.69;;;16.60;100.00
59789;BME280;47353;51.614;5.530;2023-07-20T06:12:41;101443.00;;;16.78;100.00
59789;BME280;47353;51.614;5.530;2023-07-20T06:15:27;101449.03;;;16.85;100.00
59789;BME280;47353;51.614;5.530;2023-07-20T06:17:54;101446.13;;;17.08;100.00
59789;BME280;47353;51.614;5.530;2023-07-20T06:20:22;101443.06;;;17.23;100.00
59789;BME280;47353;51.614;5.530;2023-07-20T06:22:47;101450.66;;;17.55;100.00
59789;BME280;47353;51.614;5.530;2023-07-20T06:25:13;101458.75;;;17.83;100.00
59789;BME280;47353;51.614;5.530;2023-07-20T06:27:38;101459.91;;;17.82;100.00
59789;BME280;47353;51.614;5.530;2023-07-20T06:30:04;101469.34;;;17.73;100.00
59789;BME280;47353;51.614;5.530;2023-07-20T06:32:29;101465.06;;;17.62;100.00
59789;BME280;47353;51.614;5.530;2023-07-20T06:34:55;101463.50;;;17.56;100.00
59789;BME280;47353;51.614;5.530;2023-07-20T06:37:20;101458.38;;;17.44;100.00
59789;BME280;47353;51.614;5.530;2023-07-20T06:39:46;101458.06;;;17.46;100.00
59789;BME280;47353;51.614;5.530;2023-07-20T06:42:11;101461.56;;;17.70;100.00
59789;BME280;47353;51.614;5.530;2023-07-20T06:44:36;101455.75;;;17.80;100.00
59789;BME280;47353;51.614;5.530;2023-07-20T06:47:02;101451.72;;;18.13;100.00
59789;BME280;47353;51.614;5.530;2023-07-20T06:49:28;101448.03;;;18.26;100.00
59789;BME280;47353;51.614;5.530;2023-07-20T06:51:54;101449.84;;;18.22;99.03
59789;BME280;47353;51.614;5.530;2023-07-20T06:54:19;101446.41;;;18.11;98.97
59789;BME280;47353;51.614;5.530;2023-07-20T06:56:45;101453.56;;;18.17;96.75
59789;BME280;47353;51.614;5.530;2023-07-20T06:59:10;101461.25;;;18.25;97.03
59789;BME280;47353;51.614;5.530;2023-07-20T07:01:36;101457.19;;;18.32;95.47
59789;BME280;47353;51.614;5.530;2023-07-20T07:04:01;101460.91;;;18.54;94.91
59789;BME280;47353;51.614;5.530;2023-07-20T07:06:26;101460.06;;;18.67;93.69
59789;BME280;47353;51.614;5.530;2023-07-20T07:08:53;101456.13;;;18.90;95.22
59789;BME280;47353;51.614;5.530;2023-07-20T07:11:18;101456.28;;;19.29;99.43
59789;BME280;47353;51.614;5.530;2023-07-20T07:13:44;101453.31;;;19.56;93.57
59789;BME280;47353;51.614;5.530;2023-07-20T07:16:12;101465.66;;;19.77;88.94
59789;BME280;47353;51.614;5.530;2023-07-20T07:18:39;101463.63;;;20.00;86.23
59789;BME280;47353;51.614;5.530;2023-07-20T07:21:05;101466.88;;;20.24;84.52
59789;BME280;47353;51.614;5.530;2023-07-20T07:23:31;101474.69;;;20.44;80.96
59789;BME280;47353;51.614;5.530;2023-07-20T07:25:56;101475.09;;;20.77;82.39
59789;BME280;47353;51.614;5.530;2023-07-20T07:28:21;101477.91;;;20.77;77.07
59789;BME280;47353;51.614;5.530;2023-07-20T07:30:47;101480.91;;;21.14;76.71
59789;BME280;47353;51.614;5.530;2023-07-20T07:33:13;101480.88;;;21.40;72.58
59789;BME280;47353;51.614;5.530;2023-07-20T07:35:38;101487.47;;;21.70;72.21
59789;BME280;47353;51.614;5.530;2023-07-20T07:38:04;101481.13;;;21.90;70.91
59789;BME280;47353;51.614;5.530;2023-07-20T07:40:31;101470.13;;;21.97;69.63
59789;BME280;47353;51.614;5.530;2023-07-20T07:42:57;101469.16;;;21.93;71.75
59789;BME280;47353;51.614;5.530;2023-07-20T07:45:22;101478.69;;;22.46;75.17
59789;BME280;47353;51.614;5.530;2023-07-20T07:47:47;101481.44;;;22.26;67.24
59789;BME280;47353;51.614;5.530;2023-07-20T07:50:13;101486.09;;;21.84;66.23
59789;BME280;47353;51.614;5.530;2023-07-20T07:52:38;101490.97;;;21.41;68.06
59789;BME280;47353;51.614;5.530;2023-07-20T07:55:04;101485.53;;;21.27;69.46
59789;BME280;47353;51.614;5.530;2023-07-20T07:57:30;101487.88;;;21.17;72.37
59789;BME280;47353;51.614;5.530;2023-07-20T07:59:55;101496.50;;;21.20;67.34
59789;BME280;47353;51.614;5.530;2023-07-20T08:02:20;101496.28;;;21.42;68.22
59789;BME280;47353;51.614;5.530;2023-07-20T08:04:46;101496.59;;;21.67;68.29
59789;BME280;47353;51.614;5.530;2023-07-20T08:07:12;101499.75;;;21.39;63.57
59789;BME280;47353;51.614;5.530;2023-07-20T08:09:37;101500.13;;;21.29;65.74
59789;BME280;47353;51.614;5.530;2023-07-20T08:12:03;101503.41;;;21.14;66.96
59789;BME280;47353;51.614;5.530;2023-07-20T08:14:29;101500.13;;;21.04;64.99
59789;BME280;47353;51.614;5.530;2023-07-20T08:16:54;101498.13;;;21.04;68.50
59789;BME280;47353;51.614;5.530;2023-07-20T08:19:19;101496.81;;;21.19;69.84
59789;BME280;47353;51.614;5.530;2023-07-20T08:21:45;101502.91;;;21.38;68.95
59789;BME280;47353;51.614;5.530;2023-07-20T08:24:10;101512.50;;;21.54;70.26
59789;BME280;47353;51.614;5.530;2023-07-20T08:26:35;101506.88;;;21.54;69.83
59789;BME280;47353;51.614;5.530;2023-07-20T08:29:01;101503.59;;;21.43;68.11
59789;BME280;47353;51.614;5.530;2023-07-20T08:31:26;101506.91;;;21.28;68.01
59789;BME280;47353;51.614;5.530;2023-07-20T08:33:53;101504.41;;;21.10;70.50
59789;BME280;47353;51.614;5.530;2023-07-20T08:36:19;101506.59;;;20.96;71.47
59789;BME280;47353;51.614;5.530;2023-07-20T08:38:44;101509.47;;;20.57;70.20
59789;BME280;47353;51.614;5.530;2023-07-20T08:41:09;101510.75;;;20.42;70.33
59789;BME280;47353;51.614;5.530;2023-07-20T08:43:37;101506.88;;;20.21;69.21
59789;BME280;47353;51.614;5.530;2023-07-20T08:46:03;101506.00;;;20.12;72.90
59789;BME280;47353;51.614;5.530;2023-07-20T08:48:30;101513.16;;;19.88;68.87
59789;BME280;47353;51.614;5.530;2023-07-20T08:50:56;101505.06;;;19.64;68.22
59789;BME280;47353;51.614;5.530;2023-07-20T08:53:23;101506.78;;;19.73;72.88
59789;BME280;47353;51.614;5.530;2023-07-20T08:55:51;101505.16;;;19.72;73.29
59789;BME280;47353;51.614;5.530;2023-07-20T08:58:19;101495.50;;;19.96;75.50
59789;BME280;47353;51.614;5.530;2023-07-20T09:00:46;101502.56;;;20.24;74.71
59789;BME280;47353;51.614;5.530;2023-07-20T09:03:12;101505.28;;;20.37;70.05
59789;BME280;47353;51.614;5.530;2023-07-20T09:05:37;101505.88;;;20.82;69.44
59789;BME280;47353;51.614;5.530;2023-07-20T09:08:05;101508.72;;;21.07;70.31
59789;BME280;47353;51.614;5.530;2023-07-20T09:10:31;101505.41;;;21.31;66.54
59789;BME280;47353;51.614;5.530;2023-07-20T09:12:56;101509.56;;;21.42;67.29
59789;BME280;47353;51.614;5.530;2023-07-20T09:15:22;101509.53;;;21.59;66.91
59789;BME280;47353;51.614;5.530;2023-07-20T09:17:49;101508.97;;;21.91;66.30
59789;BME280;47353;51.614;5.530;2023-07-20T09:20:19;101505.47;;;21.94;64.24
59789;BME280;47353;51.614;5.530;2023-07-20T09:22:45;101506.47;;;23.80;62.09
59789;BME280;47353;51.614;5.530;2023-07-20T09:27:48;101508.44;;;27.76;50.15
59789;BME280;47353;51.614;5.530;2023-07-20T09:30:15;101507.88;;;27.48;47.11
59789;BME280;47353;51.614;5.530;2023-07-20T09:32:45;101502.34;;;26.51;44.90
59789;BME280;47353;51.614;5.530;2023-07-20T09:35:15;101504.91;;;25.66;48.36
59789;BME280;47353;51.614;5.530;2023-07-20T09:37:46;101493.19;;;25.13;50.88
59789;BME280;47353;51.614;5.530;2023-07-20T09:40:15;101490.09;;;25.18;50.02
59789;BME280;47353;51.614;5.530;2023-07-20T09:42:42;101484.59;;;25.09;48.61
59789;BME280;47353;51.614;5.530;2023-07-20T09:45:08;101477.38;;;24.72;49.66
59789;BME280;47353;51.614;5.530;2023-07-20T09:47:36;101482.75;;;24.89;50.10
59789;BME280;47353;51.614;5.530;2023-07-20T09:50:02;101486.06;;;25.58;48.04
59789;BME280;47353;51.614;5.530;2023-07-20T09:52:29;101478.13;;;27.07;44.96
59789;BME280;47353;51.614;5.530;2023-07-20T09:54:55;101489.16;;;26.74;45.24
59789;BME280;47353;51.614;5.530;2023-07-20T09:57:21;101480.78;;;26.81;44.10
59789;BME280;47353;51.614;5.530;2023-07-20T09:59:46;101479.84;;;26.93;45.12
59789;BME280;47353;51.614;5.530;2023-07-20T10:02:20;101485.28;;;27.01;44.74
59789;BME280;47353;51.614;5.530;2023-07-20T10:04:49;101481.28;;;26.87;43.62
59789;BME280;47353;51.614;5.530;2023-07-20T10:07:19;101478.16;;;26.73;46.76
59789;BME280;47353;51.614;5.530;2023-07-20T10:09:48;101485.50;;;26.11;46.35
59789;BME280;47353;51.614;5.530;2023-07-20T10:12:15;101485.97;;;25.55;46.67
59789;BME280;47353;51.614;5.530;2023-07-20T10:14:47;101474.78;;;25.07;47.14
59789;BME280;47353;51.614;5.530;2023-07-20T10:17:17;101474.50;;;24.84;50.56
59789;BME280;47353;51.614;5.530;2023-07-20T10:19:47;101479.34;;;24.84;53.23
59789;BME280;47353;51.614;5.530;2023-07-20T10:22:19;101475.31;;;25.24;52.75
59789;BME280;47353;51.614;5.530;2023-07-20T10:24:46;101479.84;;;27.12;45.80
59789;BME280;47353;51.614;5.530;2023-07-20T10:27:12;101470.47;;;27.11;41.63
59789;BME280;47353;51.614;5.530;2023-07-20T10:29:39;101466.94;;;27.33;44.48
59789;BME280;47353;51.614;5.530;2023-07-20T10:32:05;101460.53;;;29.01;41.73
59789;BME280;47353;51.614;5.530;2023-07-20T10:34:31;101473.25;;;30.50;34.18
59789;BME280;47353;51.614;5.530;2023-07-20T10:36:57;101470.03;;;31.27;33.12
59789;BME280;47353;51.614;5.530;2023-07-20T10:39:27;101473.59;;;32.03;33.85
59789;BME280;47353;51.614;5.530;2023-07-20T10:42:11;101461.72;;;33.82;33.58
59789;BME280;47353;51.614;5.530;2023-07-20T10:44:38;101462.19;;;34.79;32.43
59789;BME280;47353;51.614;5.530;2023-07-20T10:47:09;101457.19;;;35.20;29.53
59789;BME280;47353;51.614;5.530;2023-07-20T10:49:59;101455.81;;;34.98;30.09
59789;BME280;47353;51.614;5.530;2023-07-20T10:52:37;101453.28;;;35.04;29.93
59789;BME280;47353;51.614;5.530;2023-07-20T10:55:16;101447.28;;;35.85;29.06
59789;BME280;47353;51.614;5.530;2023-07-20T10:57:41;101442.72;;;34.53;27.21
59789;BME280;47353;51.614;5.530;2023-07-20T11:00:13;101442.00;;;33.05;29.70
59789;BME280;47353;51.614;5.530;2023-07-20T11:02:46;101440.84;;;32.53;29.92
59789;BME280;47353;51.614;5.530;2023-07-20T11:05:31;101440.81;;;31.83;32.77
59789;BME280;47353;51.614;5.530;2023-07-20T11:07:57;101437.72;;;30.51;33.56
59789;BME280;47353;51.614;5.530;2023-07-20T11:10:22;101438.09;;;29.63;33.16
59789;BME280;47353;51.614;5.530;2023-07-20T11:18:25;101438.63;;;26.83;38.59
59789;BME280;47353;51.614;5.530;2023-07-20T11:20:51;101434.94;;;25.70;37.20
59789;BME280;47353;51.614;5.530;2023-07-20T11:23:19;101435.16;;;25.34;39.41
59789;BME280;47353;51.614;5.530;2023-07-20T11:25:44;101428.41;;;24.99;42.72
59789;BME280;47353;51.614;5.530;2023-07-20T11:28:10;101413.34;;;24.95;42.58
59789;BME280;47353;51.614;5.530;2023-07-20T11:30:37;101416.97;;;25.08;44.03
59789;BME280;47353;51.614;5.530;2023-07-20T11:33:03;101413.81;;;25.68;43.40
59789;BME280;47353;51.614;5.530;2023-07-20T11:35:28;101413.91;;;26.18;41.13
59789;BME280;47353;51.614;5.530;2023-07-20T11:37:54;101412.69;;;26.35;40.91
59789;BME280;47353;51.614;5.530;2023-07-20T11:40:20;101408.09;;;28.76;37.53
59789;BME280;47353;51.614;5.530;2023-07-20T11:42:45;101415.38;;;31.60;32.94
59789;BME280;47353;51.614;5.530;2023-07-20T11:45:11;101415.41;;;32.83;29.73
59789;BME280;47353;51.614;5.530;2023-07-20T11:47:40;101421.94;;;31.61;29.55
59789;BME280;47353;51.614;5.530;2023-07-20T11:50:07;101413.84;;;32.37;27.85
59789;BME280;47353;51.614;5.530;2023-07-20T11:52:33;101412.84;;;33.85;26.42
59789;BME280;47353;51.614;5.530;2023-07-20T11:54:59;101404.41;;;32.57;27.56
59789;BME280;47353;51.614;5.530;2023-07-20T11:57:24;101408.78;;;30.60;30.68
59789;BME280;47353;51.614;5.530;2023-07-20T11:59:57;101403.94;;;29.70;33.70
59789;BME280;47353;51.614;5.530;2023-07-20T12:02:26;101398.97;;;28.67;34.81
59789;BME280;47353;51.614;5.530;2023-07-20T12:04:54;101400.50;;;27.87;36.50
59789;BME280;47353;51.614;5.530;2023-07-20T12:07:19;101397.19;;;27.20;37.30
59789;BME280;47353;51.614;5.530;2023-07-20T12:09:45;101398.69;;;26.95;38.25
59789;BME280;47353;51.614;5.530;2023-07-20T12:12:11;101391.94;;;26.50;37.23
59789;BME280;47353;51.614;5.530;2023-07-20T12:14:40;101388.75;;;26.17;39.21
59789;BME280;47353;51.614;5.530;2023-07-20T12:17:08;101391.31;;;25.90;39.99
59789;BME280;47353;51.614;5.530;2023-07-20T12:19:38;101398.72;;;25.79;39.33
59789;BME280;47353;51.614;5.530;2023-07-20T12:22:03;101396.16;;;25.74;40.12
59789;BME280;47353;51.614;5.530;2023-07-20T12:24:29;101385.38;;;25.95;40.25
59789;BME280;47353;51.614;5.530;2023-07-20T12:26:58;101382.91;;;25.94;40.36
59789;BME280;47353;51.614;5.530;2023-07-20T12:29:23;101387.28;;;25.91;39.83
59789;BME280;47353;51.614;5.530;2023-07-20T12:31:49;101394.41;;;26.32;36.74
59789;BME280;47353;51.614;5.530;2023-07-20T12:34:14;101390.41;;;26.52;38.00
59789;BME280;47353;51.614;5.530;2023-07-20T12:36:40;101390.50;;;26.56;37.92
59789;BME280;47353;51.614;5.530;2023-07-20T12:39:05;101388.44;;;26.56;41.17
59789;BME280;47353;51.614;5.530;2023-07-20T12:41:31;101394.47;;;26.70;37.39
59789;BME280;47353;51.614;5.530;2023-07-20T12:43:56;101384.63;;;26.64;37.21
59789;BME280;47353;51.614;5.530;2023-07-20T12:46:23;101381.13;;;26.55;38.41
59789;BME280;47353;51.614;5.530;2023-07-20T12:48:49;101388.72;;;26.32;38.70
59789;BME280;47353;51.614;5.530;2023-07-20T12:51:14;101391.34;;;26.41;40.04
59789;BME280;47353;51.614;5.530;2023-07-20T12:53:40;101381.88;;;26.52;38.51
59789;BME280;47353;51.614;5.530;2023-07-20T12:56:06;101382.22;;;26.32;39.37
59789;BME280;47353;51.614;5.530;2023-07-20T12:58:31;101387.00;;;25.81;37.66
59789;BME280;47353;51.614;5.530;2023-07-20T13:00:57;101390.81;;;25.57;39.14